St. Barthelemy, Guadeloupe
Current Conditions -  °F | °C
As of 8:00 AM on Thursday 23 Oct 2014 (Local Time) from TNCM Reporting Station
Scattered Clouds Scattered Clouds  
Wind Chill: 82°   Ceiling: Unl
Heat Index: 89°   Visibility: 6mi
Dew Point: 75°   Wind: 8mph
Humidity: 79%   Direction: 80°E
Pressure: 29.94"   Gusts: NA
Location:  17.88°N, 62.84°W
Report Text: TNCM 231200Z 08007KT 050V120 9999 SCT018 28/24 Q1014 A2996 NOSIG
Loading
Personal Weather Stations






























Interactive Weather Map
Tropical Storm Tracking
New forecast layout! Learn more

10-Day Weather Forecast

Advertisements
Track Severe Weather on mobile